Time;durP1;ratioP1;P1;durP2;ratioP2;P2;SDS_P1;SDS_P2;PMS_P1;PMS_P2;Temp;Humidity;BMP_temperature;BMP_pressure;BME280_temperature;BME280_humidity;BME280_pressure;Samples;Min_cycle;Max_cycle;Signal;HPM_P1;HPM_P2
2021/01/06 00:00:41;;;;;;;27.20;15.70;;;4.10;91.50;;;;;;4331442;32;20197;-64
2021/01/06 00:03:10;;;;;;;25.87;15.93;;;4.00;91.70;;;;;;4327332;33;20153;-63
2021/01/06 00:05:41;;;;;;;24.63;14.53;;;4.00;91.80;;;;;;4329165;32;20165;-64
2021/01/06 00:08:08;;;;;;;26.77;16.83;;;4.00;91.70;;;;;;4329710;33;20157;-63
2021/01/06 00:10:38;;;;;;;24.00;15.17;;;4.00;91.80;;;;;;4328160;33;20220;-63
2021/01/06 00:13:06;;;;;;;25.70;15.27;;;4.00;92.10;;;;;;4328105;33;20236;-64
2021/01/06 00:15:34;;;;;;;25.37;15.60;;;4.10;91.70;;;;;;4327277;33;20218;-64
2021/01/06 00:18:01;;;;;;;22.50;14.50;;;4.00;91.70;;;;;;4326087;33;20198;-64
2021/01/06 00:20:29;;;;;;;21.97;14.03;;;4.00;91.90;;;;;;4325192;33;20229;-64
2021/01/06 00:22:56;;;;;;;22.60;14.37;;;4.00;91.90;;;;;;4321564;33;20193;-63
2021/01/06 00:25:25;;;;;;;25.93;16.50;;;4.00;91.90;;;;;;4328448;33;20221;-64
2021/01/06 00:27:52;;;;;;;23.80;14.50;;;4.00;92.00;;;;;;4326900;33;20225;-64
2021/01/06 00:30:22;;;;;;;25.17;16.17;;;4.00;92.00;;;;;;4328125;33;20182;-64
2021/01/06 00:32:48;;;;;;;24.80;15.73;;;4.00;92.00;;;;;;4315484;33;20144;-63
2021/01/06 00:35:15;;;;;;;29.10;16.03;;;4.00;91.90;;;;;;4318851;32;20201;-63
2021/01/06 00:37:41;;;;;;;24.50;15.93;;;4.00;91.90;;;;;;4327726;33;20173;-63
2021/01/06 00:40:08;;;;;;;29.23;16.07;;;4.00;91.90;;;;;;4319785;33;20219;-64
2021/01/06 00:42:40;;;;;;;24.37;15.00;;;3.90;92.00;;;;;;4326479;32;20160;-63
2021/01/06 00:45:16;;;;;;;29.17;16.00;;;4.00;92.00;;;;;;4371596;32;20640;-64
2021/01/06 00:47:44;;;;;;;25.07;14.60;;;4.00;92.00;;;;;;4328218;33;20165;-63
2021/01/06 00:50:14;;;;;;;25.50;15.60;;;4.00;92.00;;;;;;4323840;33;20497;-63
2021/01/06 00:52:47;;;;;;;24.50;14.37;;;3.90;92.00;;;;;;4328014;33;20174;-63
2021/01/06 00:55:18;;;;;;;25.60;14.93;;;3.90;92.00;;;;;;4333623;33;20160;-63
2021/01/06 00:57:48;;;;;;;26.60;15.90;;;3.90;91.90;;;;;;4326551;33;20185;-63
2021/01/06 01:00:17;;;;;;;23.33;13.87;;;3.90;91.90;;;;;;4327949;33;20145;-63
2021/01/06 01:02:49;;;;;;;21.63;13.83;;;3.80;92.00;;;;;;4327659;33;20145;-63
2021/01/06 01:05:20;;;;;;;25.67;14.73;;;3.80;92.10;;;;;;4332864;33;20153;-64
2021/01/06 01:07:47;;;;;;;22.30;13.23;;;3.80;92.00;;;;;;4327438;33;20547;-64
2021/01/06 01:10:26;;;;;;;21.47;13.13;;;3.80;92.00;;;;;;4318065;33;20224;-64
2021/01/06 01:12:53;;;;;;;21.67;13.23;;;3.80;91.90;;;;;;4326823;33;20224;-63
2021/01/06 01:15:21;;;;;;;22.10;14.70;;;3.80;91.80;;;;;;4320039;33;20192;-63
2021/01/06 01:17:48;;;;;;;22.43;13.77;;;3.80;91.90;;;;;;4322557;33;20249;-63
2021/01/06 01:20:16;;;;;;;24.53;13.77;;;3.80;92.00;;;;;;4319632;33;20445;-64
2021/01/06 01:22:43;;;;;;;23.80;13.87;;;3.80;91.90;;;;;;4328458;33;20165;-63
2021/01/06 01:25:11;;;;;;;23.30;14.40;;;3.70;91.80;;;;;;4326986;33;20221;-63
2021/01/06 01:27:37;;;;;;;25.87;15.17;;;3.70;91.90;;;;;;4324043;33;20156;-62
2021/01/06 01:30:08;;;;;;;19.97;13.07;;;3.70;91.90;;;;;;4324543;33;20220;-64
2021/01/06 01:32:34;;;;;;;18.13;12.13;;;3.70;92.00;;;;;;4328737;33;20546;-63
2021/01/06 01:35:03;;;;;;;21.00;12.23;;;3.60;91.80;;;;;;4334203;33;20652;-63
2021/01/06 01:37:29;;;;;;;21.67;12.70;;;3.60;91.70;;;;;;4336176;33;20180;-64
2021/01/06 01:39:56;;;;;;;18.40;12.03;;;3.60;91.70;;;;;;4326863;33;20363;-63
2021/01/06 01:42:22;;;;;;;18.53;12.17;;;3.50;91.70;;;;;;4327809;33;20537;-63
2021/01/06 01:44:58;;;;;;;18.50;11.60;;;3.50;91.60;;;;;;4328290;33;20278;-62
2021/01/06 01:47:35;;;;;;;16.90;10.70;;;3.50;91.60;;;;;;4325854;33;20153;-64
2021/01/06 01:50:10;;;;;;;15.93;11.17;;;3.50;91.70;;;;;;4327394;33;20164;-64
2021/01/06 01:52:45;;;;;;;16.53;11.23;;;3.40;91.50;;;;;;4322010;33;20211;-63
2021/01/06 01:55:18;;;;;;;15.67;10.70;;;3.40;91.40;;;;;;4312736;32;20474;-63
2021/01/06 01:57:50;;;;;;;17.20;11.77;;;3.40;91.30;;;;;;4314623;32;20594;-63
2021/01/06 02:00:21;;;;;;;17.73;10.97;;;3.40;91.40;;;;;;4317430;33;20189;-63
2021/01/06 02:03:09;;;;;;;17.00;11.03;;;3.30;91.40;;;;;;4334270;33;20170;-63
2021/01/06 02:05:44;;;;;;;28.67;10.90;;;3.30;91.30;;;;;;4319502;33;20606;-63
2021/01/06 02:08:19;;;;;;;20.67;13.03;;;3.30;91.80;;;;;;4315465;33;20172;-62
2021/01/06 02:10:52;;;;;;;15.83;11.33;;;3.30;91.50;;;;;;4326861;33;20228;-63
2021/01/06 02:13:37;;;;;;;15.33;11.13;;;3.30;91.40;;;;;;4318072;33;20292;-64
2021/01/06 02:16:10;;;;;;;17.57;11.17;;;3.30;91.40;;;;;;4313143;33;20157;-63
2021/01/06 02:18:37;;;;;;;16.00;10.40;;;3.30;91.30;;;;;;4327436;33;20692;-63
2021/01/06 02:21:15;;;;;;;16.27;11.20;;;3.30;91.40;;;;;;4327339;33;20603;-63
2021/01/06 02:23:52;;;;;;;16.90;11.00;;;3.30;91.30;;;;;;4334002;33;20182;-62
2021/01/06 02:26:22;;;;;;;17.27;11.17;;;3.30;91.40;;;;;;4341203;33;20140;-62
2021/01/06 02:28:49;;;;;;;17.00;10.97;;;3.30;91.30;;;;;;4330210;33;20164;-65
2021/01/06 02:31:20;;;;;;;17.03;11.03;;;3.30;91.30;;;;;;4329146;33;20206;-63
2021/01/06 02:33:48;;;;;;;18.47;11.33;;;3.20;91.10;;;;;;4319967;33;20185;-62
2021/01/06 02:36:19;;;;;;;17.27;11.43;;;3.20;91.20;;;;;;4329347;33;20232;-63
2021/01/06 02:38:48;;;;;;;17.90;10.97;;;3.20;91.20;;;;;;4327914;33;20213;-62
2021/01/06 02:41:20;;;;;;;19.10;10.97;;;3.20;91.20;;;;;;4328896;33;20228;-63
2021/01/06 02:43:52;;;;;;;16.60;11.60;;;3.20;91.20;;;;;;4327134;33;20264;-63
2021/01/06 02:46:26;;;;;;;15.40;10.93;;;3.10;91.20;;;;;;4320463;33;20161;-63
2021/01/06 02:49:06;;;;;;;18.03;11.93;;;3.10;91.20;;;;;;4329950;33;20541;-63
2021/01/06 02:51:41;;;;;;;17.17;11.33;;;3.10;91.10;;;;;;4322671;33;20158;-65
2021/01/06 02:54:10;;;;;;;19.90;11.90;;;3.10;91.50;;;;;;4327288;32;20145;-64
2021/01/06 02:56:40;;;;;;;16.93;10.93;;;3.10;91.20;;;;;;4326599;33;20248;-64
2021/01/06 02:59:10;;;;;;;15.53;11.63;;;3.10;91.20;;;;;;4349426;32;20679;-63
2021/01/06 03:01:40;;;;;;;18.53;11.50;;;3.10;91.10;;;;;;4329551;33;20533;-64
2021/01/06 03:04:09;;;;;;;20.90;12.40;;;3.10;91.10;;;;;;4326074;33;20256;-64
2021/01/06 03:06:52;;;;;;;14.40;9.97;;;3.10;91.10;;;;;;4320127;33;20585;-64
2021/01/06 03:09:40;;;;;;;17.03;10.93;;;3.10;91.10;;;;;;4340247;33;20486;-63
2021/01/06 03:12:15;;;;;;;16.37;10.53;;;3.00;91.00;;;;;;4330292;33;20683;-63
2021/01/06 03:14:43;;;;;;;16.23;10.43;;;3.00;91.10;;;;;;4343393;33;20189;-64
2021/01/06 03:17:14;;;;;;;16.47;11.63;;;3.10;91.10;;;;;;4339270;33;21828;-65
2021/01/06 03:19:49;;;;;;;16.17;10.63;;;3.00;91.10;;;;;;4343901;33;20173;-64
2021/01/06 03:22:22;;;;;;;15.87;9.70;;;3.00;91.20;;;;;;4334853;33;20219;-63
2021/01/06 03:24:54;;;;;;;16.27;10.60;;;3.00;91.10;;;;;;4343879;33;20165;-63
2021/01/06 03:27:26;;;;;;;14.83;10.23;;;3.00;91.00;;;;;;4339796;33;20184;-63
2021/01/06 03:29:53;;;;;;;14.70;10.43;;;3.00;91.00;;;;;;4344101;33;20192;-63
2021/01/06 03:32:27;;;;;;;14.30;9.83;;;2.90;91.00;;;;;;4342000;33;20216;-62
2021/01/06 03:35:00;;;;;;;14.70;10.10;;;2.90;91.00;;;;;;4337144;33;20154;-63
2021/01/06 03:37:33;;;;;;;15.37;9.83;;;2.90;91.00;;;;;;4330093;33;20184;-63
2021/01/06 03:40:08;;;;;;;15.50;10.30;;;2.90;91.30;;;;;;4359590;32;20149;-63
2021/01/06 03:42:39;;;;;;;17.20;10.53;;;2.90;90.90;;;;;;4349758;32;20443;-63
2021/01/06 03:45:07;;;;;;;18.53;11.20;;;2.90;91.00;;;;;;4345031;33;20154;-63
2021/01/06 03:47:42;;;;;;;16.27;10.00;;;2.90;91.00;;;;;;4343810;33;20180;-63
2021/01/06 03:50:20;;;;;;;16.20;10.63;;;2.90;91.00;;;;;;4365241;32;20576;-62
2021/01/06 03:52:59;;;;;;;15.50;10.57;;;2.90;91.10;;;;;;4328637;33;20272;-63
2021/01/06 03:55:37;;;;;;;15.50;9.50;;;2.90;91.30;;;;;;4324925;33;20627;-63
2021/01/06 03:58:22;;;;;;;16.17;10.17;;;2.90;91.00;;;;;;4331495;33;20607;-63
2021/01/06 04:00:53;;;;;;;15.53;9.57;;;2.90;91.00;;;;;;4326740;33;20896;-63
2021/01/06 04:03:29;;;;;;;15.07;10.00;;;2.90;90.90;;;;;;4325342;33;20162;-63
2021/01/06 04:05:58;;;;;;;21.93;10.77;;;2.90;91.00;;;;;;4328835;33;20607;-63
2021/01/06 04:08:38;;;;;;;18.13;10.07;;;2.90;90.80;;;;;;4323328;33;20173;-63
2021/01/06 04:11:07;;;;;;;15.67;9.87;;;2.90;90.80;;;;;;4329390;33;20569;-63
2021/01/06 04:13:47;;;;;;;16.70;10.23;;;2.90;90.70;;;;;;4326011;33;20165;-63
2021/01/06 04:16:14;;;;;;;16.77;10.40;;;2.90;90.70;;;;;;4328821;33;20303;-63
2021/01/06 04:18:42;;;;;;;15.20;10.30;;;2.90;90.60;;;;;;4321353;33;20245;-63
2021/01/06 04:21:09;;;;;;;15.73;10.37;;;2.90;90.70;;;;;;4313901;33;20224;-63
2021/01/06 04:23:38;;;;;;;16.30;9.93;;;3.00;90.70;;;;;;4330773;33;20165;-63
2021/01/06 04:26:06;;;;;;;17.87;11.10;;;2.90;90.70;;;;;;4334295;33;20185;-63
2021/01/06 04:28:36;;;;;;;16.47;10.33;;;3.00;90.80;;;;;;4327131;33;20220;-63
2021/01/06 04:31:05;;;;;;;16.43;10.33;;;3.00;90.70;;;;;;4327287;33;20168;-63
2021/01/06 04:33:34;;;;;;;14.93;9.67;;;3.00;90.80;;;;;;4324494;33;20213;-62
2021/01/06 04:36:06;;;;;;;14.47;10.03;;;3.00;90.60;;;;;;4313849;33;20158;-62
2021/01/06 04:38:34;;;;;;;15.80;10.33;;;3.00;90.50;;;;;;4331526;33;20190;-62
2021/01/06 04:41:24;;;;;;;17.37;10.20;;;3.00;90.60;;;;;;4343049;33;20218;-63
2021/01/06 04:44:01;;;;;;;15.97;9.97;;;3.00;90.60;;;;;;4329779;33;20170;-63
2021/01/06 04:46:45;;;;;;;15.70;9.93;;;3.00;90.50;;;;;;4317730;33;20528;-63
2021/01/06 04:49:22;;;;;;;17.10;10.50;;;3.00;90.60;;;;;;4324206;33;20232;-63
2021/01/06 04:52:01;;;;;;;15.40;9.80;;;3.00;90.80;;;;;;4323795;33;20229;-63
2021/01/06 04:54:57;;;;;;;16.67;10.70;;;3.00;90.60;;;;;;4328110;33;20229;-62
2021/01/06 04:57:34;;;;;;;18.23;10.80;;;3.00;90.40;;;;;;4313650;33;20217;-62
2021/01/06 05:00:21;;;;;;;17.43;10.00;;;3.00;90.40;;;;;;4322881;32;20510;-63
2021/01/06 05:03:30;;;;;;;17.30;10.13;;;3.00;90.50;;;;;;4321207;33;20264;-63
2021/01/06 05:06:54;;;;;;;16.40;10.00;;;3.00;90.40;;;;;;4327651;33;20265;-63
2021/01/06 05:09:31;;;;;;;13.73;9.80;;;2.90;90.40;;;;;;4327621;33;20165;-62
2021/01/06 05:12:11;;;;;;;16.00;10.37;;;2.90;90.40;;;;;;4336330;33;20705;-63
2021/01/06 05:14:47;;;;;;;20.00;10.13;;;2.90;90.40;;;;;;4335265;33;20173;-63
2021/01/06 05:17:14;;;;;;;14.17;9.53;;;2.90;90.30;;;;;;4327180;33;20153;-63
2021/01/06 05:19:44;;;;;;;17.10;9.37;;;3.00;90.20;;;;;;4329079;33;20195;-62
2021/01/06 05:22:12;;;;;;;15.10;9.37;;;3.00;90.10;;;;;;4319129;33;20153;-62
2021/01/06 05:24:42;;;;;;;18.63;9.57;;;2.90;90.10;;;;;;4341873;33;20142;-62
2021/01/06 05:27:19;;;;;;;16.40;10.57;;;2.90;90.20;;;;;;4337527;33;20252;-62
2021/01/06 05:29:52;;;;;;;14.10;9.57;;;2.90;90.30;;;;;;4328154;33;20178;-62
2021/01/06 05:32:21;;;;;;;15.63;9.47;;;2.90;90.20;;;;;;4330238;32;20149;-62
2021/01/06 05:34:51;;;;;;;15.27;9.10;;;2.90;90.10;;;;;;4326924;33;20169;-62
2021/01/06 05:37:21;;;;;;;14.43;8.87;;;2.90;90.00;;;;;;4325335;33;20225;-63
2021/01/06 05:39:48;;;;;;;14.23;9.50;;;2.90;90.10;;;;;;4312850;33;20428;-62
2021/01/06 05:42:21;;;;;;;14.67;9.80;;;2.90;89.50;;;;;;4325137;33;20236;-64
2021/01/06 05:44:56;;;;;;;18.47;10.43;;;2.90;90.10;;;;;;4327902;33;20271;-64
2021/01/06 05:47:28;;;;;;;13.73;9.30;;;2.90;89.90;;;;;;4328628;33;20231;-62
2021/01/06 05:49:55;;;;;;;14.80;9.87;;;2.90;90.00;;;;;;4317890;33;20577;-63
2021/01/06 05:52:31;;;;;;;17.63;10.07;;;2.90;89.90;;;;;;4324603;33;20218;-62
2021/01/06 05:55:06;;;;;;;15.87;9.47;;;2.90;90.00;;;;;;4334057;33;20228;-62
2021/01/06 05:57:44;;;;;;;12.87;9.00;;;2.90;90.00;;;;;;4326563;33;20526;-62
2021/01/06 06:00:37;;;;;;;13.07;8.73;;;2.90;90.20;;;;;;4326887;33;20168;-62
2021/01/06 06:03:42;;;;;;;14.57;9.30;;;2.90;90.20;;;;;;4321699;33;20226;-62
2021/01/06 06:06:37;;;;;;;15.13;9.63;;;2.90;90.00;;;;;;4319175;33;20183;-62
2021/01/06 06:09:12;;;;;;;13.20;9.27;;;2.90;89.90;;;;;;4346522;33;20149;-62
2021/01/06 06:12:08;;;;;;;14.53;8.50;;;2.90;89.30;;;;;;4341931;33;20751;-62
2021/01/06 06:15:10;;;;;;;13.20;8.43;;;2.90;89.70;;;;;;4339800;33;20180;-62
2021/01/06 06:17:58;;;;;;;11.73;8.63;;;2.90;89.30;;;;;;4283197;33;20146;-65
2021/01/06 06:20:40;;;;;;;14.03;8.37;;;2.90;89.50;;;;;;4272407;33;20234;-62
2021/01/06 06:23:21;;;;;;;13.47;9.33;;;2.90;89.80;;;;;;4276940;33;20237;-62
2021/01/06 06:26:00;;;;;;;12.97;8.60;;;3.00;89.70;;;;;;4282854;33;20170;-63
2021/01/06 06:28:32;;;;;;;16.93;9.30;;;2.90;88.80;;;;;;4284399;33;20199;-62
2021/01/06 06:31:04;;;;;;;14.47;9.37;;;2.90;89.10;;;;;;4284148;33;20238;-61
2021/01/06 06:33:33;;;;;;;14.90;8.87;;;2.90;89.20;;;;;;4282262;33;20229;-63
2021/01/06 06:36:09;;;;;;;13.93;9.30;;;2.90;89.40;;;;;;4282775;33;20249;-62
2021/01/06 06:38:39;;;;;;;14.03;9.10;;;2.80;89.20;;;;;;4282513;33;20270;-62
2021/01/06 06:41:10;;;;;;;15.80;9.97;;;2.90;89.10;;;;;;4276023;33;20225;-64
2021/01/06 06:43:43;;;;;;;13.70;9.70;;;2.90;89.20;;;;;;4277117;33;20241;-65
2021/01/06 06:46:22;;;;;;;15.67;9.00;;;2.80;89.10;;;;;;4264403;33;20169;-62
2021/01/06 06:49:22;;;;;;;13.83;9.57;;;2.80;89.30;;;;;;4268950;33;20182;-64
2021/01/06 06:51:58;;;;;;;14.67;9.47;;;2.80;89.30;;;;;;4242330;33;20214;-62
2021/01/06 06:54:37;;;;;;;14.03;9.60;;;2.80;89.40;;;;;;4253072;33;20413;-60
2021/01/06 06:57:09;;;;;;;14.77;9.17;;;2.90;89.30;;;;;;4316596;33;20648;-62
2021/01/06 06:59:43;;;;;;;13.60;8.90;;;2.90;89.30;;;;;;4350884;33;20247;-61
2021/01/06 07:02:09;;;;;;;14.03;9.33;;;2.80;89.20;;;;;;4354427;32;20584;-60
2021/01/06 07:04:43;;;;;;;14.17;9.33;;;2.80;89.20;;;;;;4352213;33;20163;-61
2021/01/06 07:07:35;;;;;;;14.40;9.33;;;2.90;89.20;;;;;;4357719;33;20545;-62
2021/01/06 07:10:06;;;;;;;14.63;9.80;;;2.90;89.20;;;;;;4349540;32;20236;-65
2021/01/06 07:12:38;;;;;;;15.83;10.10;;;2.90;89.20;;;;;;4354695;32;20276;-64
2021/01/06 07:15:22;;;;;;;16.60;10.52;;;2.80;89.40;;;;;;4327029;32;8566068;-65
2021/01/06 07:17:48;;;;;;;13.33;9.00;;;2.80;89.70;;;;;;4341242;33;20260;-63
2021/01/06 07:20:37;;;;;;;13.83;8.87;;;2.80;89.50;;;;;;4322456;32;20220;-65
2021/01/06 07:23:11;;;;;;;14.47;8.93;;;2.90;89.00;;;;;;4349576;32;20188;-61
2021/01/06 07:25:42;;;;;;;14.20;9.23;;;2.90;88.50;;;;;;4354829;32;20239;-66
2021/01/06 07:28:28;;;;;;;11.73;8.53;;;2.80;88.30;;;;;;4340135;32;20176;-62
2021/01/06 07:30:54;;;;;;;11.80;8.73;;;2.70;88.60;;;;;;4329001;32;20326;-63
2021/01/06 07:33:33;;;;;;;13.13;9.30;;;2.80;89.10;;;;;;4325763;32;20169;-62
2021/01/06 07:36:13;;;;;;;15.50;9.43;;;2.80;89.10;;;;;;4329127;32;20204;-64
2021/01/06 07:38:40;;;;;;;11.93;8.27;;;2.80;89.00;;;;;;4326720;32;20554;-64
2021/01/06 07:41:07;;;;;;;12.07;8.93;;;2.80;88.60;;;;;;4326278;33;20207;-64
2021/01/06 07:43:38;;;;;;;17.43;9.27;;;2.90;89.00;;;;;;4326745;33;20150;-62
2021/01/06 07:46:17;;;;;;;16.60;9.30;;;2.80;88.40;;;;;;4327551;32;20480;-63
2021/01/06 07:49:14;;;;;;;16.37;9.13;;;2.80;88.50;;;;;;4327121;32;20219;-63
2021/01/06 07:51:55;;;;;;;17.43;9.67;;;2.90;88.50;;;;;;4287048;33;20150;-65
2021/01/06 07:54:36;;;;;;;15.30;8.80;;;2.90;88.30;;;;;;4274513;33;20944;-62
2021/01/06 07:57:09;;;;;;;16.20;9.33;;;2.90;88.40;;;;;;4270894;33;20678;-64
2021/01/06 07:59:46;;;;;;;12.80;8.70;;;2.90;88.40;;;;;;4276373;33;20154;-64
2021/01/06 08:02:19;;;;;;;15.03;9.80;;;3.00;88.60;;;;;;4270625;33;20198;-64
2021/01/06 08:05:06;;;;;;;15.73;9.83;;;3.00;88.30;;;;;;4278774;33;20286;-62
2021/01/06 08:07:41;;;;;;;12.10;8.83;;;3.00;87.90;;;;;;4273954;33;20166;-65
2021/01/06 08:10:16;;;;;;;15.00;9.17;;;3.00;88.10;;;;;;4270620;33;20174;-67
2021/01/06 08:12:44;;;;;;;13.53;8.27;;;3.00;88.40;;;;;;4269828;33;20158;-67
2021/01/06 08:15:25;;;;;;;14.70;9.53;;;3.00;88.60;;;;;;4270508;33;20155;-63
2021/01/06 08:18:00;;;;;;;13.37;9.00;;;3.10;88.20;;;;;;4273950;33;20151;-62
2021/01/06 08:21:00;;;;;;;15.30;9.17;;;3.10;87.60;;;;;;4269975;33;20236;-65
2021/01/06 08:23:52;;;;;;;16.93;9.87;;;3.10;87.60;;;;;;4276495;33;20186;-62
2021/01/06 08:26:24;;;;;;;14.60;8.80;;;3.10;88.00;;;;;;4275547;33;20254;-66
2021/01/06 08:28:52;;;;;;;14.47;9.00;;;3.20;87.60;;;;;;4306514;33;20154;-64
2021/01/06 08:31:48;;;;;;;;;;;;;;;;;;;;;
2021/01/06 08:34:35;;;;;;;12.97;9.33;;;3.30;87.60;;;;;;4322312;32;20154;-61
2021/01/06 08:37:26;;;;;;;18.40;9.17;;;3.30;87.10;;;;;;4327844;32;20217;-62
2021/01/06 08:39:57;;;;;;;15.53;8.80;;;3.30;87.00;;;;;;4321965;32;20712;-64
2021/01/06 08:42:48;;;;;;;;;;;;;;;;;;;;;
2021/01/06 08:45:29;;;;;;;17.67;9.83;;;3.30;87.30;;;;;;4327099;32;20174;-63
2021/01/06 08:48:16;;;;;;;14.30;9.27;;;3.30;86.90;;;;;;4324770;33;20233;-63
2021/01/06 08:50:49;;;;;;;15.17;9.33;;;3.30;87.40;;;;;;4326184;32;20605;-64
2021/01/06 08:53:17;;;;;;;11.80;8.53;;;3.30;87.10;;;;;;4325321;32;20165;-64
2021/01/06 08:56:03;;;;;;;13.47;8.87;;;3.30;87.50;;;;;;4328164;32;20262;-66
2021/01/06 08:58:45;;;;;;;14.47;9.30;;;3.40;87.50;;;;;;4321088;33;20241;-66
2021/01/06 09:01:35;;;;;;;14.33;9.67;;;3.30;87.60;;;;;;4318356;33;20435;-64
2021/01/06 09:04:12;;;;;;;19.97;10.17;;;3.40;87.30;;;;;;4322665;32;20207;-66
2021/01/06 09:07:07;;;;;;;15.20;9.33;;;3.40;86.80;;;;;;4326175;33;20168;-63
2021/01/06 09:09:42;;;;;;;13.30;9.67;;;3.40;87.00;;;;;;4320832;33;20175;-63
2021/01/06 09:12:28;;;;;;;14.50;9.53;;;3.50;86.90;;;;;;4319745;33;20170;-64
2021/01/06 09:15:27;;;;;;;16.83;9.67;;;3.60;86.70;;;;;;4325201;32;20225;-62
2021/01/06 09:18:11;;;;;;;16.67;9.27;;;3.60;86.40;;;;;;4325083;32;20173;-66
2021/01/06 09:21:13;;;;;;;13.13;9.53;;;3.60;86.60;;;;;;4322209;33;20620;-67
2021/01/06 09:23:57;;;;;;;13.90;9.07;;;3.60;86.00;;;;;;4357565;32;20156;-64
2021/01/06 09:26:26;;;;;;;13.97;8.73;;;3.60;86.40;;;;;;4354813;32;20297;-64
2021/01/06 09:29:07;;;;;;;15.20;10.00;;;3.60;86.50;;;;;;4355172;32;20156;-61
2021/01/06 09:31:51;;;;;;;13.47;9.30;;;3.70;86.30;;;;;;4350424;32;20174;-62
2021/01/06 09:34:32;;;;;;;14.47;8.87;;;3.70;86.40;;;;;;4347671;32;20262;-62
2021/01/06 09:37:00;;;;;;;13.47;9.00;;;3.70;86.00;;;;;;4345954;32;21358;-65
2021/01/06 09:39:45;;;;;;;16.10;9.70;;;3.70;86.20;;;;;;4345212;32;20263;-63
2021/01/06 09:42:18;;;;;;;13.17;8.93;;;3.80;86.10;;;;;;4348991;32;20718;-60
2021/01/06 09:45:04;;;;;;;14.60;9.30;;;3.80;85.50;;;;;;4356700;32;20157;-62
2021/01/06 09:47:53;;;;;;;;;;;;;;;;;;;;;
2021/01/06 09:50:23;;;;;;;14.07;9.17;;;3.70;86.40;;;;;;4355948;32;20328;-63
2021/01/06 09:53:00;;;;;;;12.93;8.57;;;3.80;86.20;;;;;;4352252;32;20149;-62
2021/01/06 09:55:29;;;;;;;15.63;8.93;;;3.80;86.20;;;;;;4350608;32;20192;-62
2021/01/06 09:58:05;;;;;;;14.30;8.53;;;3.90;85.80;;;;;;4338332;32;20206;-65
2021/01/06 10:00:55;;;;;;;;;;;;;;;;;;;;;
2021/01/06 10:03:26;;;;;;;15.37;9.07;;;3.80;85.90;;;;;;4345703;32;20134;-63
2021/01/06 10:06:18;;;;;;;14.10;9.33;;;3.80;85.50;;;;;;4321485;32;20172;-60
2021/01/06 10:08:58;;;;;;;12.33;8.50;;;3.80;85.80;;;;;;4320146;32;20648;-65
2021/01/06 10:11:45;;;;;;;15.43;9.60;;;3.80;86.30;;;;;;4323809;32;20218;-63
2021/01/06 10:14:32;;;;;;;14.63;8.97;;;3.90;85.90;;;;;;4322112;33;20581;-63
2021/01/06 10:17:10;;;;;;;13.27;9.40;;;3.90;86.10;;;;;;4359988;32;20220;-66
2021/01/06 10:19:44;;;;;;;20.20;9.30;;;4.00;85.70;;;;;;4361290;32;20179;-62
2021/01/06 10:22:25;;;;;;;15.23;9.67;;;3.90;85.80;;;;;;4360539;32;20156;-62
2021/01/06 10:25:38;;;;;;;15.47;9.03;;;4.00;85.10;;;;;;4363397;32;20160;-61
2021/01/06 10:31:57;;;;;;;15.60;10.13;;;3.90;85.50;;;;;;4013226;32;12840289;-62
2021/01/06 10:37:50;;;;;;;15.30;9.53;;;3.90;84.90;;;;;;4332157;33;20168;-63
2021/01/06 10:40:46;;;;;;;12.57;8.43;;;3.80;85.20;;;;;;4333885;33;20149;-63
2021/01/06 10:43:41;;;;;;;13.20;8.77;;;3.90;85.80;;;;;;4334831;33;20220;-62
2021/01/06 10:46:52;;;;;;;15.43;9.03;;;4.00;85.00;;;;;;4334438;33;20169;-63
2021/01/06 10:49:56;;;;;;;12.80;8.33;;;4.00;84.70;;;;;;4334532;33;20185;-63
2021/01/06 10:52:56;;;;;;;13.53;7.80;;;4.00;83.60;;;;;;4334431;33;20185;-65
2021/01/06 10:55:48;;;;;;;11.50;8.10;;;4.00;83.60;;;;;;4333989;33;20224;-61
2021/01/06 10:58:58;;;;;;;14.20;7.80;;;4.00;84.20;;;;;;4333894;33;20195;-62
2021/01/06 11:01:59;;;;;;;11.67;7.40;;;4.00;84.40;;;;;;4289161;33;20252;-62
2021/01/06 11:04:41;;;;;;;14.20;7.90;;;4.10;84.10;;;;;;4292913;33;20220;-61
2021/01/06 11:07:33;;;;;;;14.90;8.40;;;4.10;84.20;;;;;;4294491;33;20156;-65
2021/01/06 11:10:25;;;;;;;11.80;7.23;;;4.20;83.80;;;;;;4292072;33;20608;-62
2021/01/06 11:13:16;;;;;;;11.27;7.03;;;4.30;82.40;;;;;;4297318;33;20183;-66
2021/01/06 11:16:04;;;;;;;13.50;7.50;;;4.40;82.00;;;;;;4327449;33;20149;-63
2021/01/06 11:18:44;;;;;;;12.63;7.50;;;4.40;82.00;;;;;;4331203;33;20230;-63
2021/01/06 11:21:16;;;;;;;12.47;7.00;;;4.50;81.00;;;;;;4327542;33;20180;-63
2021/01/06 11:23:56;;;;;;;13.43;7.30;;;4.50;80.60;;;;;;4335071;33;20237;-64
2021/01/06 11:26:54;;;;;;;11.07;7.60;;;4.50;81.60;;;;;;4321579;33;20585;-62
2021/01/06 11:29:52;;;;;;;11.63;6.97;;;4.70;81.70;;;;;;4323441;33;20217;-64
2021/01/06 11:32:34;;;;;;;8.67;6.73;;;4.70;81.00;;;;;;4328475;33;20196;-62
2021/01/06 11:35:32;;;;;;;11.97;6.63;;;4.70;80.00;;;;;;4326453;33;20229;-62
2021/01/06 11:38:01;;;;;;;12.87;7.30;;;4.50;81.70;;;;;;4344092;32;20227;-65
2021/01/06 11:40:55;;;;;;;12.23;7.23;;;4.60;81.00;;;;;;4362416;32;20208;-63
2021/01/06 11:43:46;;;;;;;8.43;6.00;;;4.90;80.50;;;;;;4352328;32;20153;-63
2021/01/06 11:46:43;;;;;;;12.47;7.37;;;5.00;79.50;;;;;;4301696;33;20491;-62
2021/01/06 11:49:51;;;;;;;9.53;6.17;;;4.90;79.60;;;;;;4238718;33;20222;-63
2021/01/06 11:52:38;;;;;;;10.23;5.90;;;5.00;79.50;;;;;;4207777;34;20179;-63
2021/01/06 11:55:23;;;;;;;10.73;6.00;;;5.00;78.60;;;;;;4207737;34;20168;-63
2021/01/06 11:58:00;;;;;;;11.07;6.33;;;5.00;78.70;;;;;;4211233;34;20246;-63
2021/01/06 12:00:59;;;;;;;13.20;6.23;;;4.60;78.90;;;;;;4213401;34;20465;-66
2021/01/06 12:03:42;;;;;;;11.37;6.10;;;4.50;81.00;;;;;;4211016;34;20199;-62
2021/01/06 12:06:25;;;;;;;11.27;6.07;;;4.60;81.00;;;;;;4211431;34;20162;-64
2021/01/06 12:09:28;;;;;;;12.90;6.83;;;4.60;79.90;;;;;;4212382;34;20665;-63
2021/01/06 12:12:04;;;;;;;9.47;5.97;;;4.60;80.90;;;;;;4210896;34;20202;-62
2021/01/06 12:14:42;;;;;;;11.03;6.50;;;4.40;80.60;;;;;;4225480;33;20509;-67
2021/01/06 12:17:20;;;;;;;8.40;5.20;;;4.40;80.60;;;;;;4240521;33;20174;-66
2021/01/06 12:19:55;;;;;;;9.47;5.03;;;4.40;80.40;;;;;;4243046;33;20225;-62
2021/01/06 12:22:32;;;;;;;10.57;5.43;;;4.30;79.80;;;;;;4257745;33;20655;-64
2021/01/06 12:25:26;;;;;;;8.77;5.30;;;4.30;80.60;;;;;;4314822;33;20181;-63
2021/01/06 12:28:06;;;;;;;9.43;5.67;;;4.20;80.40;;;;;;4344858;32;20143;-65
2021/01/06 12:30:45;;;;;;;7.13;4.87;;;4.30;80.60;;;;;;4402759;32;20151;-65
2021/01/06 12:33:34;;;;;;;7.33;4.43;;;4.20;80.40;;;;;;4400399;32;20504;-65
2021/01/06 12:36:27;;;;;;;6.93;4.60;;;4.30;80.60;;;;;;4397353;32;20284;-67
2021/01/06 12:39:10;;;;;;;12.60;4.73;;;4.30;79.60;;;;;;4399529;32;20711;-63
2021/01/06 12:41:49;;;;;;;10.80;4.30;;;4.30;80.20;;;;;;4402337;32;20227;-61
2021/01/06 12:44:22;;;;;;;7.33;4.27;;;4.50;80.10;;;;;;4401398;32;20152;-62
2021/01/06 12:46:57;;;;;;;8.70;4.40;;;4.60;79.80;;;;;;4397323;32;21501;-65
2021/01/06 12:49:56;;;;;;;8.97;4.83;;;4.60;79.70;;;;;;4399115;32;20171;-64
2021/01/06 12:52:30;;;;;;;9.43;4.37;;;4.60;78.70;;;;;;4401679;32;20215;-63
2021/01/06 12:55:06;;;;;;;10.57;4.47;;;4.60;79.50;;;;;;4397197;32;20514;-64
2021/01/06 12:57:44;;;;;;;12.50;4.53;;;4.70;79.50;;;;;;4399496;32;20168;-62
2021/01/06 13:00:32;;;;;;;9.77;4.60;;;4.70;79.60;;;;;;4398529;32;20486;-64
2021/01/06 13:03:26;;;;;;;8.07;4.03;;;4.50;79.20;;;;;;4396888;32;20981;-62
2021/01/06 13:05:58;;;;;;;9.77;4.40;;;4.60;79.80;;;;;;4401673;32;20188;-61
2021/01/06 13:08:36;;;;;;;11.87;5.17;;;4.40;80.10;;;;;;4401515;32;20162;-62
2021/01/06 13:11:16;;;;;;;6.63;4.17;;;4.40;81.10;;;;;;4397708;32;20211;-63
2021/01/06 13:13:44;;;;;;;7.83;5.03;;;4.50;81.10;;;;;;4396826;32;20646;-65
2021/01/06 13:16:36;;;;;;;9.20;4.47;;;4.40;80.20;;;;;;4398156;32;20200;-66
2021/01/06 13:19:37;;;;;;;9.68;5.95;;;4.40;78.90;;;;;;4396948;32;20049;-66
2021/01/06 13:22:31;;;;;;;8.80;4.80;;;4.20;81.20;;;;;;4397782;32;20190;-65
2021/01/06 13:25:10;;;;;;;11.10;5.27;;;4.20;81.10;;;;;;4397727;32;20152;-63
2021/01/06 13:28:09;;;;;;;7.87;4.17;;;4.10;81.00;;;;;;4401674;32;20155;-63
2021/01/06 13:30:46;;;;;;;7.93;3.83;;;4.10;81.30;;;;;;4398501;32;20244;-66
2021/01/06 13:33:43;;;;;;;12.10;4.30;;;4.20;82.10;;;;;;4396492;32;20151;-63
2021/01/06 13:36:28;;;;;;;9.80;4.83;;;4.40;81.90;;;;;;4401983;32;20187;-64
2021/01/06 13:42:35;;;;;;;8.43;4.33;;;4.40;81.30;;;;;;4389114;32;20235;-62
2021/01/06 13:45:27;;;;;;;10.50;5.07;;;4.50;80.80;;;;;;4402668;32;20179;-65
2021/01/06 13:48:32;;;;;;;9.57;4.57;;;4.30;81.60;;;;;;4396192;32;20250;-65
2021/01/06 13:51:14;;;;;;;7.27;4.23;;;4.20;82.40;;;;;;4396507;32;20196;-63
2021/01/06 13:53:54;;;;;;;8.13;4.47;;;4.30;82.10;;;;;;4395638;32;20239;-63
2021/01/06 13:56:29;;;;;;;8.73;4.00;;;4.30;82.70;;;;;;4396702;32;20152;-63